sensor_id;sensor_type;location;lat;lon;timestamp;pressure;altitude;pressure_sealevel;temperature;humidity
23321;BME280;33376;51.306;4.752;2023-02-19T00:01:05;102202.94;;;11.57;100.00
23321;BME280;33376;51.306;4.752;2023-02-19T00:03:31;102206.47;;;11.57;100.00
23321;BME280;33376;51.306;4.752;2023-02-19T00:05:56;102217.38;;;11.50;100.00
23321;BME280;33376;51.306;4.752;2023-02-19T00:08:21;102224.53;;;11.48;100.00
23321;BME280;33376;51.306;4.752;2023-02-19T00:10:46;102234.06;;;11.53;100.00
23321;BME280;33376;51.306;4.752;2023-02-19T00:13:11;102230.47;;;11.54;100.00
23321;BME280;33376;51.306;4.752;2023-02-19T00:15:37;102233.31;;;11.50;100.00
23321;BME280;33376;51.306;4.752;2023-02-19T00:18:02;102225.41;;;11.48;100.00
23321;BME280;33376;51.306;4.752;2023-02-19T00:20:27;102234.16;;;11.50;100.00
23321;BME280;33376;51.306;4.752;2023-02-19T00:22:52;102242.03;;;11.53;100.00
23321;BME280;33376;51.306;4.752;2023-02-19T00:25:18;102240.06;;;11.58;100.00
23321;BME280;33376;51.306;4.752;2023-02-19T00:27:43;102242.84;;;11.55;100.00
23321;BME280;33376;51.306;4.752;2023-02-19T00:30:08;102245.78;;;11.48;100.00
23321;BME280;33376;51.306;4.752;2023-02-19T00:32:34;102247.44;;;11.50;100.00
23321;BME280;33376;51.306;4.752;2023-02-19T00:34:59;102244.91;;;11.47;100.00
23321;BME280;33376;51.306;4.752;2023-02-19T00:37:24;102249.13;;;11.53;100.00
23321;BME280;33376;51.306;4.752;2023-02-19T00:39:49;102261.59;;;11.51;100.00
23321;BME280;33376;51.306;4.752;2023-02-19T00:42:15;102259.13;;;11.46;100.00
23321;BME280;33376;51.306;4.752;2023-02-19T00:44:40;102255.81;;;11.40;100.00
23321;BME280;33376;51.306;4.752;2023-02-19T00:47:05;102254.50;;;11.51;100.00
23321;BME280;33376;51.306;4.752;2023-02-19T00:49:30;102260.63;;;11.53;100.00
23321;BME280;33376;51.306;4.752;2023-02-19T00:51:55;102258.03;;;11.52;100.00
23321;BME280;33376;51.306;4.752;2023-02-19T00:54:21;102267.91;;;11.48;100.00
23321;BME280;33376;51.306;4.752;2023-02-19T00:56:49;102271.56;;;11.44;100.00
23321;BME280;33376;51.306;4.752;2023-02-19T00:59:15;102274.94;;;11.49;100.00
23321;BME280;33376;51.306;4.752;2023-02-19T01:01:40;102276.06;;;11.42;100.00
23321;BME280;33376;51.306;4.752;2023-02-19T01:04:06;102271.03;;;11.35;100.00
23321;BME280;33376;51.306;4.752;2023-02-19T01:06:31;102270.97;;;11.36;100.00
23321;BME280;33376;51.306;4.752;2023-02-19T01:08:57;102276.13;;;11.41;100.00
23321;BME280;33376;51.306;4.752;2023-02-19T01:11:22;102285.69;;;11.46;100.00
23321;BME280;33376;51.306;4.752;2023-02-19T01:13:48;102289.63;;;11.35;100.00
23321;BME280;33376;51.306;4.752;2023-02-19T01:16:14;102298.53;;;11.34;100.00
23321;BME280;33376;51.306;4.752;2023-02-19T01:18:39;102305.66;;;11.32;100.00
23321;BME280;33376;51.306;4.752;2023-02-19T01:21:10;102306.47;;;11.34;100.00
23321;BME280;33376;51.306;4.752;2023-02-19T01:23:36;102307.53;;;11.28;100.00
23321;BME280;33376;51.306;4.752;2023-02-19T01:26:05;102314.41;;;11.35;100.00
23321;BME280;33376;51.306;4.752;2023-02-19T01:28:31;102312.97;;;11.25;100.00
23321;BME280;33376;51.306;4.752;2023-02-19T01:30:59;102315.47;;;11.30;100.00
23321;BME280;33376;51.306;4.752;2023-02-19T01:33:25;102328.06;;;11.23;100.00
23321;BME280;33376;51.306;4.752;2023-02-19T01:35:50;102314.63;;;11.29;100.00
23321;BME280;33376;51.306;4.752;2023-02-19T01:38:15;102313.75;;;11.29;100.00
23321;BME280;33376;51.306;4.752;2023-02-19T01:40:40;102318.28;;;11.25;100.00
23321;BME280;33376;51.306;4.752;2023-02-19T01:43:10;102318.34;;;11.24;100.00
23321;BME280;33376;51.306;4.752;2023-02-19T01:45:41;102313.19;;;11.19;100.00
23321;BME280;33376;51.306;4.752;2023-02-19T01:48:11;102324.78;;;11.17;100.00
23321;BME280;33376;51.306;4.752;2023-02-19T01:50:45;102322.06;;;11.18;100.00
23321;BME280;33376;51.306;4.752;2023-02-19T01:53:12;102321.19;;;11.18;100.00
23321;BME280;33376;51.306;4.752;2023-02-19T01:55:38;102317.38;;;11.26;100.00
23321;BME280;33376;51.306;4.752;2023-02-19T01:58:04;102312.97;;;11.25;100.00
23321;BME280;33376;51.306;4.752;2023-02-19T02:00:30;102326.72;;;11.12;100.00
23321;BME280;33376;51.306;4.752;2023-02-19T02:02:57;102321.34;;;11.13;100.00
23321;BME280;33376;51.306;4.752;2023-02-19T02:07:54;102312.47;;;11.14;100.00
23321;BME280;33376;51.306;4.752;2023-02-19T02:10:38;102319.56;;;11.14;100.00
23321;BME280;33376;51.306;4.752;2023-02-19T02:13:04;102318.72;;;11.13;100.00
23321;BME280;33376;51.306;4.752;2023-02-19T02:15:34;102311.47;;;11.18;100.00
23321;BME280;33376;51.306;4.752;2023-02-19T02:18:15;102329.31;;;11.13;100.00
23321;BME280;33376;51.306;4.752;2023-02-19T02:21:02;102326.72;;;11.12;100.00
23321;BME280;33376;51.306;4.752;2023-02-19T02:23:37;102329.22;;;11.16;100.00
23321;BME280;33376;51.306;4.752;2023-02-19T02:31:38;102334.75;;;11.10;100.00
23321;BME280;33376;51.306;4.752;2023-02-19T02:36:53;102333.28;;;11.00;100.00
23321;BME280;33376;51.306;4.752;2023-02-19T02:39:20;102332.38;;;11.01;100.00
23321;BME280;33376;51.306;4.752;2023-02-19T02:41:50;102326.34;;;10.96;100.00
23321;BME280;33376;51.306;4.752;2023-02-19T02:44:39;102338.41;;;11.06;100.00
23321;BME280;33376;51.306;4.752;2023-02-19T02:47:05;102339.38;;;11.04;100.00
23321;BME280;33376;51.306;4.752;2023-02-19T02:49:30;102335.84;;;11.03;100.00
23321;BME280;33376;51.306;4.752;2023-02-19T02:51:57;102337.72;;;11.00;100.00
23321;BME280;33376;51.306;4.752;2023-02-19T02:54:27;102344.78;;;11.01;100.00
23321;BME280;33376;51.306;4.752;2023-02-19T02:57:12;102337.88;;;10.95;100.00
23321;BME280;33376;51.306;4.752;2023-02-19T02:59:38;102338.72;;;10.97;100.00
23321;BME280;33376;51.306;4.752;2023-02-19T03:02:06;102352.69;;;11.02;100.00
23321;BME280;33376;51.306;4.752;2023-02-19T03:04:52;102341.56;;;10.91;100.00
23321;BME280;33376;51.306;4.752;2023-02-19T03:07:43;102342.50;;;10.89;100.00
23321;BME280;33376;51.306;4.752;2023-02-19T03:10:11;102354.63;;;10.97;100.00
23321;BME280;33376;51.306;4.752;2023-02-19T03:12:37;102355.53;;;10.96;100.00
23321;BME280;33376;51.306;4.752;2023-02-19T03:15:23;102357.13;;;11.02;100.00
23321;BME280;33376;51.306;4.752;2023-02-19T03:18:09;102355.69;;;10.92;100.00
23321;BME280;33376;51.306;4.752;2023-02-19T03:20:55;102353.13;;;10.89;100.00
23321;BME280;33376;51.306;4.752;2023-02-19T03:23:22;102349.38;;;10.96;100.00
23321;BME280;33376;51.306;4.752;2023-02-19T03:26:10;102357.56;;;10.88;100.00
23321;BME280;33376;51.306;4.752;2023-02-19T03:28:37;102361.97;;;10.89;100.00
23321;BME280;33376;51.306;4.752;2023-02-19T03:31:23;102356.66;;;10.89;100.00
23321;BME280;33376;51.306;4.752;2023-02-19T03:33:51;102367.31;;;10.88;100.00
23321;BME280;33376;51.306;4.752;2023-02-19T03:36:17;102365.50;;;10.90;100.00
23321;BME280;33376;51.306;4.752;2023-02-19T03:38:56;102361.50;;;11.03;100.00
23321;BME280;33376;51.306;4.752;2023-02-19T03:41:34;102367.94;;;10.96;100.00
23321;BME280;33376;51.306;4.752;2023-02-19T03:44:10;102369.81;;;10.92;100.00
23321;BME280;33376;51.306;4.752;2023-02-19T03:49:11;102392.06;;;10.88;100.00
23321;BME280;33376;51.306;4.752;2023-02-19T03:51:41;102400.00;;;10.88;100.00
23321;BME280;33376;51.306;4.752;2023-02-19T03:56:34;102402.97;;;10.79;100.00
23321;BME280;33376;51.306;4.752;2023-02-19T03:59:07;102401.19;;;10.80;100.00
23321;BME280;33376;51.306;4.752;2023-02-19T04:01:44;102406.53;;;10.78;100.00
23321;BME280;33376;51.306;4.752;2023-02-19T04:04:18;102416.31;;;10.76;100.00
23321;BME280;33376;51.306;4.752;2023-02-19T04:06:46;102416.31;;;10.76;100.00
23321;BME280;33376;51.306;4.752;2023-02-19T04:09:18;102426.84;;;10.79;100.00
23321;BME280;33376;51.306;4.752;2023-02-19T04:11:44;102427.88;;;10.75;100.00
23321;BME280;33376;51.306;4.752;2023-02-19T04:14:15;102432.16;;;10.79;100.00
23321;BME280;33376;51.306;4.752;2023-02-19T04:16:44;102439.38;;;10.74;100.00
23321;BME280;33376;51.306;4.752;2023-02-19T04:19:12;102434.16;;;10.71;100.00
23321;BME280;33376;51.306;4.752;2023-02-19T04:21:38;102434.06;;;10.74;100.00
23321;BME280;33376;51.306;4.752;2023-02-19T04:24:05;102441.09;;;10.77;100.00
23321;BME280;33376;51.306;4.752;2023-02-19T04:26:32;102446.50;;;10.74;100.00
23321;BME280;33376;51.306;4.752;2023-02-19T04:28:59;102440.50;;;10.67;100.00
23321;BME280;33376;51.306;4.752;2023-02-19T04:31:24;102447.53;;;10.68;100.00
23321;BME280;33376;51.306;4.752;2023-02-19T04:33:50;102442.34;;;10.64;100.00
23321;BME280;33376;51.306;4.752;2023-02-19T04:36:16;102448.59;;;10.61;100.00
23321;BME280;33376;51.306;4.752;2023-02-19T04:38:43;102452.03;;;10.65;100.00
23321;BME280;33376;51.306;4.752;2023-02-19T04:41:11;102466.41;;;10.58;100.00
23321;BME280;33376;51.306;4.752;2023-02-19T04:43:40;102462.56;;;10.68;100.00
23321;BME280;33376;51.306;4.752;2023-02-19T04:46:06;102473.16;;;10.68;100.00
23321;BME280;33376;51.306;4.752;2023-02-19T04:48:32;102480.25;;;10.69;100.00
23321;BME280;33376;51.306;4.752;2023-02-19T04:50:58;102486.75;;;10.57;100.00
23321;BME280;33376;51.306;4.752;2023-02-19T04:53:24;102497.28;;;10.60;100.00
23321;BME280;33376;51.306;4.752;2023-02-19T04:55:53;102493.94;;;10.54;100.00
23321;BME280;33376;51.306;4.752;2023-02-19T04:58:19;102501.84;;;10.55;100.00
23321;BME280;33376;51.306;4.752;2023-02-19T05:00:45;102498.34;;;10.53;100.00
23321;BME280;33376;51.306;4.752;2023-02-19T05:03:10;102500.03;;;10.57;100.00
23321;BME280;33376;51.306;4.752;2023-02-19T05:05:35;102508.19;;;10.50;100.00
23321;BME280;33376;51.306;4.752;2023-02-19T05:08:01;102513.69;;;10.42;100.00
23321;BME280;33376;51.306;4.752;2023-02-19T05:10:26;102518.94;;;10.44;100.00
23321;BME280;33376;51.306;4.752;2023-02-19T05:12:51;102525.78;;;10.52;100.00
23321;BME280;33376;51.306;4.752;2023-02-19T05:15:18;102531.09;;;10.52;100.00
23321;BME280;33376;51.306;4.752;2023-02-19T05:17:43;102540.34;;;10.38;100.00
23321;BME280;33376;51.306;4.752;2023-02-19T05:20:08;102543.13;;;10.33;100.00
23321;BME280;33376;51.306;4.752;2023-02-19T05:22:38;102545.00;;;10.28;100.00
23321;BME280;33376;51.306;4.752;2023-02-19T05:25:03;102552.75;;;10.35;100.00
23321;BME280;33376;51.306;4.752;2023-02-19T05:27:29;102551.16;;;10.30;100.00
23321;BME280;33376;51.306;4.752;2023-02-19T05:29:54;102562.69;;;10.29;100.00
23321;BME280;33376;51.306;4.752;2023-02-19T05:32:19;102567.03;;;10.31;100.00
23321;BME280;33376;51.306;4.752;2023-02-19T05:34:45;102568.03;;;10.27;100.00
23321;BME280;33376;51.306;4.752;2023-02-19T05:37:10;102577.91;;;10.21;100.00
23321;BME280;33376;51.306;4.752;2023-02-19T05:39:35;102571.91;;;10.14;100.00
23321;BME280;33376;51.306;4.752;2023-02-19T05:42:00;102570.19;;;10.12;100.00
23321;BME280;33376;51.306;4.752;2023-02-19T05:44:25;102579.00;;;10.12;100.00
23321;BME280;33376;51.306;4.752;2023-02-19T05:46:51;102581.59;;;10.15;100.00
23321;BME280;33376;51.306;4.752;2023-02-19T05:49:16;102589.66;;;10.11;100.00
23321;BME280;33376;51.306;4.752;2023-02-19T05:51:41;102580.94;;;10.04;100.00
23321;BME280;33376;51.306;4.752;2023-02-19T05:54:06;102586.25;;;10.04;100.00
23321;BME280;33376;51.306;4.752;2023-02-19T05:56:36;102594.16;;;10.07;100.00
23321;BME280;33376;51.306;4.752;2023-02-19T05:59:11;102587.22;;;10.00;100.00
23321;BME280;33376;51.306;4.752;2023-02-19T06:01:38;102588.09;;;10.01;100.00
23321;BME280;33376;51.306;4.752;2023-02-19T06:04:03;102582.94;;;9.95;100.00
23321;BME280;33376;51.306;4.752;2023-02-19T06:06:28;102592.78;;;9.90;100.00
23321;BME280;33376;51.306;4.752;2023-02-19T06:08:54;102591.09;;;9.87;100.00
23321;BME280;33376;51.306;4.752;2023-02-19T06:11:19;102595.25;;;9.97;100.00
23321;BME280;33376;51.306;4.752;2023-02-19T06:13:44;102593.25;;;10.07;100.00
23321;BME280;33376;51.306;4.752;2023-02-19T06:16:10;102581.91;;;10.00;100.00
23321;BME280;33376;51.306;4.752;2023-02-19T06:18:35;102577.63;;;9.96;100.00
23321;BME280;33376;51.306;4.752;2023-02-19T06:21:01;102586.66;;;9.88;100.00
23321;BME280;33376;51.306;4.752;2023-02-19T06:23:27;102581.56;;;9.79;100.00
23321;BME280;33376;51.306;4.752;2023-02-19T06:25:52;102593.75;;;9.87;100.00
23321;BME280;33376;51.306;4.752;2023-02-19T06:28:18;102601.00;;;9.79;100.00
23321;BME280;33376;51.306;4.752;2023-02-19T06:30:43;102593.97;;;9.77;100.00
23321;BME280;33376;51.306;4.752;2023-02-19T06:33:08;102590.38;;;9.81;100.00
23321;BME280;33376;51.306;4.752;2023-02-19T06:35:33;102600.09;;;9.80;100.00
23321;BME280;33376;51.306;4.752;2023-02-19T06:38:00;102601.81;;;9.81;100.00
23321;BME280;33376;51.306;4.752;2023-02-19T06:40:25;102606.09;;;9.87;100.00
23321;BME280;33376;51.306;4.752;2023-02-19T06:42:50;102612.41;;;9.81;100.00
23321;BME280;33376;51.306;4.752;2023-02-19T06:45:15;102607.22;;;9.77;100.00
23321;BME280;33376;51.306;4.752;2023-02-19T06:47:40;102607.38;;;9.71;100.00
23321;BME280;33376;51.306;4.752;2023-02-19T06:50:06;102604.06;;;9.61;100.00
23321;BME280;33376;51.306;4.752;2023-02-19T06:52:31;102594.59;;;9.50;100.00
23321;BME280;33376;51.306;4.752;2023-02-19T06:54:56;102595.59;;;9.46;100.00
23321;BME280;33376;51.306;4.752;2023-02-19T06:57:21;102593.88;;;9.43;100.00
23321;BME280;33376;51.306;4.752;2023-02-19T06:59:47;102585.16;;;9.38;100.00
23321;BME280;33376;51.306;4.752;2023-02-19T07:02:12;102557.03;;;9.34;100.00
23321;BME280;33376;51.306;4.752;2023-02-19T07:04:37;102545.44;;;9.38;100.00
23321;BME280;33376;51.306;4.752;2023-02-19T07:07:03;102537.53;;;9.37;100.00
23321;BME280;33376;51.306;4.752;2023-02-19T07:09:28;102535.72;;;9.39;100.00
23321;BME280;33376;51.306;4.752;2023-02-19T07:11:53;102511.03;;;9.40;100.00
23321;BME280;33376;51.306;4.752;2023-02-19T07:14:18;102500.34;;;9.43;100.00
23321;BME280;33376;51.306;4.752;2023-02-19T07:16:44;102496.72;;;9.47;100.00
23321;BME280;33376;51.306;4.752;2023-02-19T07:19:11;102491.31;;;9.51;100.00
23321;BME280;33376;51.306;4.752;2023-02-19T07:21:37;102470.16;;;9.50;100.00
23321;BME280;33376;51.306;4.752;2023-02-19T07:24:02;102469.19;;;9.54;100.00
23321;BME280;33376;51.306;4.752;2023-02-19T07:26:28;102475.22;;;9.60;100.00
23321;BME280;33376;51.306;4.752;2023-02-19T07:28:53;102478.75;;;9.59;100.00
23321;BME280;33376;51.306;4.752;2023-02-19T07:31:19;102479.34;;;9.70;100.00
23321;BME280;33376;51.306;4.752;2023-02-19T07:33:45;102485.50;;;9.72;100.00
23321;BME280;33376;51.306;4.752;2023-02-19T07:36:11;102495.97;;;9.77;100.00
23321;BME280;33376;51.306;4.752;2023-02-19T07:38:36;102495.88;;;9.80;100.00
23321;BME280;33376;51.306;4.752;2023-02-19T07:41:03;102495.94;;;9.78;100.00
23321;BME280;33376;51.306;4.752;2023-02-19T07:43:29;102506.44;;;9.81;100.00
23321;BME280;33376;51.306;4.752;2023-02-19T07:45:55;102511.50;;;9.92;100.00
23321;BME280;33376;51.306;4.752;2023-02-19T07:48:20;102525.50;;;9.97;100.00
23321;BME280;33376;51.306;4.752;2023-02-19T07:53:17;102542.88;;;10.10;100.00
23321;BME280;33376;51.306;4.752;2023-02-19T07:55:42;102555.25;;;10.09;100.00
23321;BME280;33376;51.306;4.752;2023-02-19T07:58:07;102565.75;;;10.12;100.00
23321;BME280;33376;51.306;4.752;2023-02-19T08:00:33;102584.44;;;10.08;100.00
23321;BME280;33376;51.306;4.752;2023-02-19T08:02:58;102588.72;;;10.12;100.00
23321;BME280;33376;51.306;4.752;2023-02-19T08:05:28;102600.19;;;10.14;100.00
23321;BME280;33376;51.306;4.752;2023-02-19T08:07:54;102608.81;;;10.22;100.00
23321;BME280;33376;51.306;4.752;2023-02-19T08:10:19;102623.78;;;10.23;100.00
23321;BME280;33376;51.306;4.752;2023-02-19T08:13:03;102639.75;;;10.21;100.00
23321;BME280;33376;51.306;4.752;2023-02-19T08:18:10;102656.31;;;10.29;100.00
23321;BME280;33376;51.306;4.752;2023-02-19T08:20:35;102676.81;;;10.23;100.00
23321;BME280;33376;51.306;4.752;2023-02-19T08:23:00;102679.50;;;10.21;100.00
23321;BME280;33376;51.306;4.752;2023-02-19T08:25:26;102682.41;;;10.11;100.00
23321;BME280;33376;51.306;4.752;2023-02-19T08:27:51;102676.44;;;10.01;100.00
23321;BME280;33376;51.306;4.752;2023-02-19T08:30:16;102674.66;;;10.02;100.00
23321;BME280;33376;51.306;4.752;2023-02-19T08:32:41;102665.75;;;10.04;100.00
23321;BME280;33376;51.306;4.752;2023-02-19T08:35:06;102678.97;;;10.07;100.00
23321;BME280;33376;51.306;4.752;2023-02-19T08:37:32;102680.94;;;9.98;100.00
23321;BME280;33376;51.306;4.752;2023-02-19T08:39:57;102678.06;;;10.07;100.00
23321;BME280;33376;51.306;4.752;2023-02-19T08:42:22;102670.31;;;9.98;100.00
23321;BME280;33376;51.306;4.752;2023-02-19T08:44:47;102662.19;;;10.05;100.00
23321;BME280;33376;51.306;4.752;2023-02-19T08:47:13;102658.66;;;10.08;100.00
23321;BME280;33376;51.306;4.752;2023-02-19T08:49:38;102652.19;;;10.18;100.00
23321;BME280;33376;51.306;4.752;2023-02-19T08:52:04;102633.34;;;10.30;100.00
23321;BME280;33376;51.306;4.752;2023-02-19T08:54:29;102629.31;;;10.49;100.00
23321;BME280;33376;51.306;4.752;2023-02-19T08:56:54;102642.69;;;10.45;100.00
23321;BME280;33376;51.306;4.752;2023-02-19T08:59:19;102641.41;;;10.61;100.00
23321;BME280;33376;51.306;4.752;2023-02-19T09:01:45;102646.66;;;10.62;100.00
23321;BME280;33376;51.306;4.752;2023-02-19T09:04:10;102652.81;;;10.63;100.00
23321;BME280;33376;51.306;4.752;2023-02-19T09:06:36;102662.38;;;10.70;100.00
23321;BME280;33376;51.306;4.752;2023-02-19T09:09:01;102664.06;;;10.74;100.00
23321;BME280;33376;51.306;4.752;2023-02-19T09:11:27;102673.63;;;10.79;100.00
23321;BME280;33376;51.306;4.752;2023-02-19T09:13:54;102688.38;;;10.89;100.00
23321;BME280;33376;51.306;4.752;2023-02-19T09:16:19;102696.88;;;11.02;100.00
23321;BME280;33376;51.306;4.752;2023-02-19T09:18:44;102725.84;;;11.11;100.00
23321;BME280;33376;51.306;4.752;2023-02-19T09:21:10;102731.84;;;11.17;100.00
23321;BME280;33376;51.306;4.752;2023-02-19T09:23:35;102742.97;;;11.31;100.00
23321;BME280;33376;51.306;4.752;2023-02-19T09:26:01;102753.00;;;11.52;100.00
23321;BME280;33376;51.306;4.752;2023-02-19T09:28:28;102742.06;;;11.64;100.00
23321;BME280;33376;51.306;4.752;2023-02-19T09:30:53;102749.72;;;11.75;100.00
23321;BME280;33376;51.306;4.752;2023-02-19T09:33:18;102762.41;;;11.65;100.00
23321;BME280;33376;51.306;4.752;2023-02-19T09:35:43;102745.78;;;11.57;100.00
23321;BME280;33376;51.306;4.752;2023-02-19T09:38:09;102761.00;;;11.51;100.00
23321;BME280;33376;51.306;4.752;2023-02-19T09:40:35;102749.06;;;11.35;100.00
23321;BME280;33376;51.306;4.752;2023-02-19T09:43:00;102751.09;;;11.25;100.00
23321;BME280;33376;51.306;4.752;2023-02-19T09:45:27;102760.03;;;11.23;100.00
23321;BME280;33376;51.306;4.752;2023-02-19T09:47:53;102763.72;;;11.17;100.00
23321;BME280;33376;51.306;4.752;2023-02-19T09:50:20;102766.06;;;11.29;100.00
23321;BME280;33376;51.306;4.752;2023-02-19T09:52:53;102765.31;;;11.56;100.00
23321;BME280;33376;51.306;4.752;2023-02-19T09:55:26;102773.78;;;11.70;100.00
23321;BME280;33376;51.306;4.752;2023-02-19T09:57:53;102779.88;;;11.74;100.00
23321;BME280;33376;51.306;4.752;2023-02-19T10:00:21;102777.03;;;11.80;100.00
23321;BME280;33376;51.306;4.752;2023-02-19T10:02:51;102786.88;;;11.76;100.00
23321;BME280;33376;51.306;4.752;2023-02-19T10:05:17;102785.06;;;11.78;100.00
23321;BME280;33376;51.306;4.752;2023-02-19T10:07:43;102786.03;;;11.74;100.00
23321;BME280;33376;51.306;4.752;2023-02-19T10:10:18;102793.91;;;11.79;100.00
23321;BME280;33376;51.306;4.752;2023-02-19T10:12:46;102808.16;;;11.76;100.00
23321;BME280;33376;51.306;4.752;2023-02-19T10:17:43;102806.84;;;11.59;100.00
23321;BME280;33376;51.306;4.752;2023-02-19T10:22:37;102816.59;;;11.58;100.00
23321;BME280;33376;51.306;4.752;2023-02-19T10:25:02;102823.63;;;11.61;100.00
23321;BME280;33376;51.306;4.752;2023-02-19T10:27:28;102814.22;;;11.48;100.00
23321;BME280;33376;51.306;4.752;2023-02-19T10:29:54;102828.53;;;11.42;100.00
23321;BME280;33376;51.306;4.752;2023-02-19T10:32:21;102831.94;;;11.47;100.00
23321;BME280;33376;51.306;4.752;2023-02-19T10:35:10;102839.19;;;11.41;100.00
23321;BME280;33376;51.306;4.752;2023-02-19T10:37:33;102839.59;;;11.59;100.00
23321;BME280;33376;51.306;4.752;2023-02-19T10:39:59;102831.53;;;11.62;100.00
23321;BME280;33376;51.306;4.752;2023-02-19T10:42:24;102830.56;;;11.66;100.00
23321;BME280;33376;51.306;4.752;2023-02-19T10:44:53;102849.03;;;11.39;100.00
23321;BME280;33376;51.306;4.752;2023-02-19T10:47:22;102865.09;;;11.33;100.00
23321;BME280;33376;51.306;4.752;2023-02-19T10:49:49;102869.44;;;11.02;100.00
23321;BME280;33376;51.306;4.752;2023-02-19T10:52:19;102885.63;;;10.91;100.00
23321;BME280;33376;51.306;4.752;2023-02-19T10:57:14;102905.53;;;10.71;100.00
23321;BME280;33376;51.306;4.752;2023-02-19T10:59:58;102910.78;;;10.75;100.00
23321;BME280;33376;51.306;4.752;2023-02-19T11:02:26;102923.09;;;10.78;100.00
23321;BME280;33376;51.306;4.752;2023-02-19T11:07:25;102923.41;;;11.02;100.00
23321;BME280;33376;51.306;4.752;2023-02-19T11:09:51;102920.38;;;11.17;100.00
23321;BME280;33376;51.306;4.752;2023-02-19T11:12:24;102918.09;;;11.39;100.00
23321;BME280;33376;51.306;4.752;2023-02-19T11:14:50;102910.78;;;11.47;100.00
23321;BME280;33376;51.306;4.752;2023-02-19T11:17:28;102921.28;;;11.51;100.00
23321;BME280;33376;51.306;4.752;2023-02-19T11:19:57;102917.47;;;11.64;100.00
23321;BME280;33376;51.306;4.752;2023-02-19T11:24:54;102900.06;;;11.85;100.00
23321;BME280;33376;51.306;4.752;2023-02-19T11:27:21;102888.22;;;11.97;100.00
23321;BME280;33376;51.306;4.752;2023-02-19T11:29:46;102884.28;;;12.10;100.00
23321;BME280;33376;51.306;4.752;2023-02-19T11:34:46;102866.88;;;12.29;100.00
23321;BME280;33376;51.306;4.752;2023-02-19T11:37:12;102852.97;;;12.48;100.00
23321;BME280;33376;51.306;4.752;2023-02-19T11:39:39;102838.00;;;12.46;100.00
23321;BME280;33376;51.306;4.752;2023-02-19T11:54:44;102760.41;;;12.58;100.00
23321;BME280;33376;51.306;4.752;2023-02-19T11:57:26;102755.63;;;12.69;100.00
23321;BME280;33376;51.306;4.752;2023-02-19T12:10:24;102697.03;;;12.44;100.00
23321;BME280;33376;51.306;4.752;2023-02-19T12:18:06;102701.47;;;12.44;100.00
23321;BME280;33376;51.306;4.752;2023-02-19T12:20:37;102690.78;;;12.18;100.00
23321;BME280;33376;51.306;4.752;2023-02-19T12:23:19;102699.59;;;12.20;100.00
23321;BME280;33376;51.306;4.752;2023-02-19T12:30:55;102674.97;;;13.17;100.00
23321;BME280;33376;51.306;4.752;2023-02-19T12:38:38;102648.78;;;13.52;100.00
23321;BME280;33376;51.306;4.752;2023-02-19T12:43:58;102656.06;;;12.48;100.00
23321;BME280;33376;51.306;4.752;2023-02-19T12:46:27;102685.94;;;12.30;100.00
23321;BME280;33376;51.306;4.752;2023-02-19T12:48:56;102698.03;;;11.85;100.00
23321;BME280;33376;51.306;4.752;2023-02-19T12:51:29;102723.53;;;11.91;100.00
23321;BME280;33376;51.306;4.752;2023-02-19T12:54:00;102747.03;;;12.06;100.00
23321;BME280;33376;51.306;4.752;2023-02-19T12:56:33;102754.41;;;11.96;100.00
23321;BME280;33376;51.306;4.752;2023-02-19T13:01:27;102776.38;;;12.03;100.00
23321;BME280;33376;51.306;4.752;2023-02-19T13:06:42;102788.19;;;12.22;100.00
23321;BME280;33376;51.306;4.752;2023-02-19T13:09:10;102766.53;;;12.34;100.00
23321;BME280;33376;51.306;4.752;2023-02-19T13:11:58;102764.88;;;12.30;100.00
23321;BME280;33376;51.306;4.752;2023-02-19T13:16:59;102763.53;;;11.88;100.00
23321;BME280;33376;51.306;4.752;2023-02-19T13:19:25;102784.19;;;11.78;100.00
23321;BME280;33376;51.306;4.752;2023-02-19T13:21:55;102791.63;;;11.96;100.00
23321;BME280;33376;51.306;4.752;2023-02-19T13:24:41;102791.88;;;11.89;100.00
23321;BME280;33376;51.306;4.752;2023-02-19T13:30:04;102820.34;;;11.51;100.00
23321;BME280;33376;51.306;4.752;2023-02-19T13:32:52;102835.06;;;11.31;100.00
23321;BME280;33376;51.306;4.752;2023-02-19T13:38:03;102861.09;;;11.17;100.00
23321;BME280;33376;51.306;4.752;2023-02-19T13:40:30;102866.81;;;11.00;100.00
23321;BME280;33376;51.306;4.752;2023-02-19T13:42:58;102873.94;;;10.98;100.00
23321;BME280;33376;51.306;4.752;2023-02-19T13:45:28;102870.38;;;10.61;100.00
23321;BME280;33376;51.306;4.752;2023-02-19T13:50:28;102901.25;;;10.65;100.00
23321;BME280;33376;51.306;4.752;2023-02-19T13:52:54;102902.06;;;10.69;100.00
23321;BME280;33376;51.306;4.752;2023-02-19T13:55:43;102904.63;;;10.73;100.00
23321;BME280;33376;51.306;4.752;2023-02-19T14:01:02;102905.44;;;11.13;100.00
23321;BME280;33376;51.306;4.752;2023-02-19T14:06:03;102890.63;;;11.03;100.00
23321;BME280;33376;51.306;4.752;2023-02-19T14:08:48;102884.75;;;10.91;100.00
23321;BME280;33376;51.306;4.752;2023-02-19T14:11:13;102891.56;;;11.02;100.00
23321;BME280;33376;51.306;4.752;2023-02-19T14:13:54;102893.13;;;10.73;100.00
23321;BME280;33376;51.306;4.752;2023-02-19T14:16:47;102899.69;;;10.57;100.00
23321;BME280;33376;51.306;4.752;2023-02-19T14:19:14;102920.41;;;10.79;100.00
23321;BME280;33376;51.306;4.752;2023-02-19T14:21:40;102907.34;;;10.70;100.00
23321;BME280;33376;51.306;4.752;2023-02-19T14:24:10;102914.22;;;10.79;100.00